createdAt,value
2017-08-10T00:02:02.610Z,11.67
2017-08-10T00:04:30.914Z,4.30
2017-08-10T00:06:59.179Z,6.80
2017-08-10T00:09:27.458Z,3.87
2017-08-10T00:11:55.733Z,5.17
2017-08-10T00:14:24.003Z,10.30
2017-08-10T00:16:52.256Z,5.00
2017-08-10T00:19:20.503Z,7.47
2017-08-10T00:21:48.765Z,13.83
2017-08-10T00:24:17.022Z,8.77
2017-08-10T00:26:45.258Z,5.33
2017-08-10T00:29:13.520Z,5.93
2017-08-10T00:31:41.764Z,8.67
2017-08-10T00:34:09.995Z,9.93
2017-08-10T00:36:38.226Z,11.03
2017-08-10T00:39:07.269Z,10.27
2017-08-10T00:41:35.507Z,18.30
2017-08-10T00:44:03.767Z,15.33
2017-08-10T00:46:32.823Z,20.57
2017-08-10T00:49:01.032Z,25.43
2017-08-10T00:51:30.144Z,11.87
2017-08-10T00:53:59.133Z,7.20
2017-08-10T00:56:28.157Z,11.37
2017-08-10T00:58:56.413Z,19.90
2017-08-10T01:01:24.669Z,8.13
2017-08-10T01:03:53.716Z,11.37
2017-08-10T01:06:21.984Z,9.97
2017-08-10T01:08:50.207Z,12.63
2017-08-10T01:11:18.479Z,16.93
2017-08-10T01:13:46.707Z,5.83
2017-08-10T01:16:14.958Z,10.83
2017-08-10T01:18:43.239Z,11.43
2017-08-10T01:21:12.236Z,6.63
2017-08-10T01:23:40.493Z,6.80
2017-08-10T01:26:08.750Z,11.33
2017-08-10T01:28:37.027Z,6.20
2017-08-10T01:31:05.274Z,8.90
2017-08-10T01:33:33.978Z,13.50
2017-08-10T01:36:02.270Z,7.60
2017-08-10T01:38:30.497Z,7.27
2017-08-10T01:40:58.766Z,25.13
2017-08-10T01:43:27.037Z,5.37
2017-08-10T01:45:55.455Z,9.03
2017-08-10T01:48:23.700Z,9.13
2017-08-10T01:50:51.939Z,4.60
2017-08-10T01:53:20.225Z,22.00
2017-08-10T01:55:49.254Z,12.17
2017-08-10T01:58:17.554Z,9.60
2017-08-10T02:00:45.774Z,8.40
2017-08-10T02:03:14.786Z,7.83
2017-08-10T02:05:43.096Z,9.60
2017-08-10T02:08:11.317Z,12.67
2017-08-10T02:10:39.562Z,9.00
2017-08-10T02:13:07.786Z,16.17
2017-08-10T02:15:36.026Z,11.20
2017-08-10T02:18:04.290Z,8.90
2017-08-10T02:20:32.541Z,6.17
2017-08-10T02:23:01.602Z,7.13
2017-08-10T02:25:29.838Z,6.37
2017-08-10T02:27:58.082Z,7.50
2017-08-10T02:30:26.381Z,5.60
2017-08-10T02:32:54.630Z,17.97
2017-08-10T02:35:22.886Z,7.70
2017-08-10T02:37:51.903Z,11.90
2017-08-10T02:40:20.935Z,9.77
2017-08-10T02:42:49.209Z,12.03
2017-08-10T02:45:17.458Z,7.80
2017-08-10T02:47:45.697Z,21.20
2017-08-10T02:50:13.965Z,4.77
2017-08-10T02:52:42.195Z,4.97
2017-08-10T02:55:10.438Z,5.63
2017-08-10T02:57:39.458Z,8.60
2017-08-10T03:00:07.696Z,8.87
2017-08-10T03:02:35.953Z,16.97
2017-08-10T03:05:05.042Z,19.83
2017-08-10T03:07:33.321Z,12.13
2017-08-10T03:10:04.526Z,8.50
2017-08-10T03:12:32.772Z,9.40
2017-08-10T03:15:01.972Z,15.50
2017-08-10T03:17:30.307Z,7.43
2017-08-10T03:19:59.315Z,13.07
2017-08-10T03:22:27.537Z,11.53
2017-08-10T03:24:55.809Z,11.63
2017-08-10T03:27:24.831Z,12.93
2017-08-10T03:29:53.089Z,11.20
2017-08-10T03:32:22.225Z,6.17
2017-08-10T03:34:50.445Z,6.13
2017-08-10T03:37:18.682Z,8.27
2017-08-10T03:39:46.985Z,8.03
2017-08-10T03:42:15.202Z,6.60
2017-08-10T03:44:44.203Z,5.07
2017-08-10T03:47:12.489Z,9.30
2017-08-10T03:49:40.716Z,5.50
2017-08-10T03:52:09.018Z,9.13
2017-08-10T03:54:38.034Z,7.77
2017-08-10T03:57:06.265Z,5.33
2017-08-10T03:59:34.529Z,17.33
2017-08-10T04:02:02.814Z,5.53
2017-08-10T04:04:31.050Z,6.60
2017-08-10T04:06:59.286Z,11.10
2017-08-10T04:09:27.498Z,7.60
2017-08-10T04:11:55.738Z,9.10
2017-08-10T04:14:24.735Z,8.23
2017-08-10T04:16:53.758Z,16.10
2017-08-10T04:19:22.005Z,15.13
2017-08-10T04:21:50.235Z,17.40
2017-08-10T04:24:18.465Z,19.03
2017-08-10T04:26:47.509Z,7.30
2017-08-10T04:29:15.738Z,17.87
2017-08-10T04:31:44.759Z,21.73
2017-08-10T04:34:13.016Z,15.57
2017-08-10T04:36:41.278Z,9.73
2017-08-10T04:39:10.298Z,11.40
2017-08-10T04:41:38.598Z,11.87
2017-08-10T04:44:06.833Z,15.10
2017-08-10T04:46:35.843Z,17.53
2017-08-10T04:49:04.109Z,13.90
2017-08-10T04:51:33.098Z,9.67
2017-08-10T04:54:02.115Z,8.70
2017-08-10T04:56:30.368Z,13.37
2017-08-10T04:58:59.379Z,16.60
2017-08-10T05:01:27.639Z,8.63
2017-08-10T05:03:55.886Z,8.63
2017-08-10T05:06:24.167Z,21.03
2017-08-10T05:08:52.410Z,12.03
2017-08-10T05:11:20.695Z,10.70
2017-08-10T05:13:48.993Z,9.50
2017-08-10T05:16:17.247Z,14.80
2017-08-10T05:18:45.494Z,11.37
2017-08-10T05:21:13.743Z,9.97
2017-08-10T05:23:41.982Z,14.60
2017-08-10T05:26:10.226Z,13.97
2017-08-10T05:28:38.457Z,8.70
2017-08-10T05:31:06.735Z,12.40
2017-08-10T05:33:34.954Z,11.97
2017-08-10T05:36:03.250Z,10.57
2017-08-10T05:38:32.275Z,14.63
2017-08-10T05:41:00.586Z,17.73
2017-08-10T05:43:29.634Z,6.27
2017-08-10T05:45:57.897Z,9.10
2017-08-10T05:48:26.194Z,5.60
2017-08-10T05:50:54.413Z,10.73
2017-08-10T05:53:22.658Z,13.00
2017-08-10T05:55:50.954Z,10.30
2017-08-10T05:58:19.205Z,6.20
2017-08-10T06:00:48.163Z,7.80
2017-08-10T06:03:16.455Z,7.87
2017-08-10T06:05:44.662Z,8.17
2017-08-10T06:08:12.938Z,20.10
2017-08-10T06:10:41.174Z,8.40
2017-08-10T06:13:09.410Z,32.90
2017-08-10T06:15:37.690Z,12.83
2017-08-10T06:18:06.703Z,8.73
2017-08-10T06:20:35.496Z,6.90
2017-08-10T06:23:04.502Z,6.30
2017-08-10T06:25:33.498Z,12.50
2017-08-10T06:28:01.745Z,6.60
2017-08-10T06:30:30.743Z,9.80
2017-08-10T06:32:59.751Z,5.20
2017-08-10T06:35:28.043Z,9.10
2017-08-10T06:37:56.306Z,8.77
2017-08-10T06:40:24.993Z,8.80
2017-08-10T06:42:53.255Z,7.40
2017-08-10T06:45:22.293Z,10.33
2017-08-10T06:47:50.554Z,5.30
2017-08-10T06:50:18.799Z,7.03
2017-08-10T06:52:47.875Z,10.37
2017-08-10T06:55:16.097Z,7.17
2017-08-10T06:57:44.352Z,11.50
2017-08-10T07:00:12.673Z,6.47
2017-08-10T07:02:40.915Z,9.87
2017-08-10T07:05:09.240Z,4.20
2017-08-10T07:07:37.442Z,4.23
2017-08-10T07:10:05.706Z,5.97
2017-08-10T07:12:33.965Z,4.23
2017-08-10T07:15:02.223Z,8.50
2017-08-10T07:17:30.446Z,6.63
2017-08-10T07:19:58.716Z,6.67
2017-08-10T07:22:26.982Z,5.77
2017-08-10T07:24:55.273Z,4.37
2017-08-10T07:27:23.499Z,6.30
2017-08-10T07:29:51.765Z,10.57
2017-08-10T07:32:19.996Z,6.27
2017-08-10T07:34:48.262Z,11.77
2017-08-10T07:37:16.489Z,5.90
2017-08-10T07:39:45.486Z,9.63
2017-08-10T07:42:13.751Z,9.33
2017-08-10T07:44:42.103Z,14.00
2017-08-10T07:47:10.322Z,5.23
2017-08-10T07:49:38.586Z,6.60
2017-08-10T07:52:06.874Z,3.67
2017-08-10T07:54:35.923Z,8.00
2017-08-10T07:57:04.169Z,10.57
2017-08-10T07:59:32.430Z,5.60
2017-08-10T08:02:01.516Z,7.23
2017-08-10T08:04:30.549Z,6.57
2017-08-10T08:06:58.792Z,9.63
2017-08-10T08:09:27.816Z,22.57
2017-08-10T08:11:56.143Z,13.77
2017-08-10T08:14:24.355Z,4.77
2017-08-10T08:16:52.605Z,6.03
2017-08-10T08:19:20.874Z,19.00
2017-08-10T08:21:49.105Z,6.90
2017-08-10T08:24:17.386Z,5.00
2017-08-10T08:26:45.622Z,9.33
2017-08-10T08:29:14.657Z,9.93
2017-08-10T08:31:42.920Z,8.03
2017-08-10T08:34:11.158Z,10.27
2017-08-10T08:36:40.200Z,11.10
2017-08-10T08:39:08.457Z,8.07
2017-08-10T08:41:37.518Z,5.47
2017-08-10T08:44:05.762Z,3.97
2017-08-10T08:46:34.001Z,3.60
2017-08-10T08:49:02.274Z,5.90
2017-08-10T08:51:31.282Z,5.80
2017-08-10T08:53:59.532Z,7.43
2017-08-10T08:56:28.551Z,3.30
2017-08-10T08:58:56.791Z,9.83
2017-08-10T09:01:25.006Z,8.30
2017-08-10T09:03:53.301Z,5.57
2017-08-10T09:06:22.643Z,4.43
2017-08-10T09:08:50.894Z,6.33
2017-08-10T09:11:19.154Z,3.23
2017-08-10T09:13:47.392Z,6.70
2017-08-10T09:16:16.437Z,5.20
2017-08-10T09:18:44.714Z,10.33
2017-08-10T09:21:12.934Z,3.17
2017-08-10T09:23:41.207Z,5.60
2017-08-10T09:26:09.442Z,2.60
2017-08-10T09:28:37.700Z,4.30
2017-08-10T09:31:05.957Z,3.63
2017-08-10T09:33:34.222Z,3.67
2017-08-10T09:36:03.229Z,8.40
2017-08-10T09:38:31.468Z,8.50
2017-08-10T09:40:59.795Z,5.67
2017-08-10T09:43:28.046Z,3.70
2017-08-10T09:45:57.070Z,4.17
2017-08-10T09:48:25.319Z,10.50
2017-08-10T09:50:54.319Z,8.17
2017-08-10T09:53:23.376Z,15.10
2017-08-10T09:55:51.655Z,14.43
2017-08-10T09:58:19.926Z,6.13
2017-08-10T10:00:48.256Z,4.33
2017-08-10T10:03:18.206Z,3.83
2017-08-10T10:05:46.455Z,3.67
2017-08-10T10:08:14.733Z,17.13
2017-08-10T10:10:42.965Z,3.27
2017-08-10T10:13:11.253Z,9.03
2017-08-10T10:15:39.506Z,7.37
2017-08-10T10:18:07.748Z,5.03
2017-08-10T10:20:36.002Z,6.43
2017-08-10T10:23:05.147Z,5.57
2017-08-10T10:25:33.371Z,11.33
2017-08-10T10:28:02.434Z,5.00
2017-08-10T10:30:30.663Z,3.83
2017-08-10T10:32:58.919Z,8.30
2017-08-10T10:35:27.154Z,10.80
2017-08-10T10:37:55.475Z,14.73
2017-08-10T10:40:24.474Z,6.13
2017-08-10T10:42:52.762Z,5.10
2017-08-10T10:45:21.784Z,4.50
2017-08-10T10:47:50.031Z,4.37
2017-08-10T10:50:18.302Z,10.00
2017-08-10T10:52:46.630Z,3.30
2017-08-10T10:55:14.859Z,8.07
2017-08-10T10:57:43.890Z,4.83
2017-08-10T11:00:12.167Z,8.00
2017-08-10T11:02:40.451Z,3.30
2017-08-10T11:05:08.711Z,3.53
2017-08-10T11:07:36.960Z,6.83
2017-08-10T11:10:05.998Z,4.10
2017-08-10T11:12:34.243Z,3.47
2017-08-10T11:15:02.505Z,4.77
2017-08-10T11:17:31.606Z,2.93
2017-08-10T11:19:59.837Z,3.73
2017-08-10T11:22:28.072Z,4.23
2017-08-10T11:24:56.322Z,12.10
2017-08-10T11:27:25.335Z,3.70
2017-08-10T11:29:55.036Z,4.07
2017-08-10T11:32:24.083Z,6.50
2017-08-10T11:34:52.328Z,10.73
2017-08-10T11:37:20.570Z,5.27
2017-08-10T11:39:48.840Z,8.60
2017-08-10T11:42:17.107Z,3.53
2017-08-10T11:44:45.365Z,4.87
2017-08-10T11:47:13.599Z,15.03
2017-08-10T11:49:42.594Z,5.47
2017-08-10T11:52:10.850Z,5.70
2017-08-10T11:54:39.863Z,4.63
2017-08-10T11:57:08.948Z,7.67
2017-08-10T11:59:37.190Z,6.63
2017-08-10T12:02:05.455Z,16.97
2017-08-10T12:04:33.770Z,9.50
2017-08-10T12:07:02.058Z,3.60
2017-08-10T12:09:30.292Z,4.50
2017-08-10T12:11:59.781Z,12.60
2017-08-10T12:14:28.007Z,8.67
2017-08-10T12:16:56.250Z,10.13
2017-08-10T12:19:25.134Z,9.93
2017-08-10T12:21:53.415Z,7.03
2017-08-10T12:24:21.685Z,7.93
2017-08-10T12:26:49.939Z,4.17
2017-08-10T12:29:18.197Z,6.73
2017-08-10T12:31:47.929Z,11.00
2017-08-10T12:34:16.174Z,9.40
2017-08-10T12:36:45.207Z,6.03
2017-08-10T12:39:13.462Z,12.20
2017-08-10T12:41:42.537Z,7.73
2017-08-10T12:44:11.996Z,6.30
2017-08-10T12:46:40.999Z,9.37
2017-08-10T12:49:09.287Z,10.37
2017-08-10T12:51:37.555Z,10.17
2017-08-10T12:54:05.840Z,17.87
2017-08-10T12:56:34.091Z,15.67
2017-08-10T12:59:02.374Z,23.13
2017-08-10T13:01:31.378Z,23.33
2017-08-10T13:03:59.603Z,28.80
2017-08-10T13:06:28.667Z,26.67
2017-08-10T13:08:56.900Z,18.00
2017-08-10T13:11:25.204Z,23.20
2017-08-10T13:13:53.460Z,21.40
2017-08-10T13:16:21.737Z,19.57
2017-08-10T13:18:49.967Z,18.37
2017-08-10T13:21:18.267Z,22.63
2017-08-10T13:23:47.305Z,23.80
2017-08-10T13:26:15.518Z,26.67
2017-08-10T13:28:43.806Z,31.20
2017-08-10T13:31:12.830Z,22.83
2017-08-10T13:33:41.103Z,33.83
2017-08-10T13:36:10.152Z,26.73
2017-08-10T13:38:38.431Z,31.83
2017-08-10T13:41:06.703Z,31.30
2017-08-10T13:43:35.011Z,26.23
2017-08-10T13:46:04.072Z,29.20
2017-08-10T13:48:32.327Z,27.17
2017-08-10T13:51:00.596Z,25.40
2017-08-10T13:53:28.850Z,30.90
2017-08-10T13:55:57.160Z,28.60
2017-08-10T13:58:25.426Z,30.10
2017-08-10T14:00:53.722Z,26.33
2017-08-10T14:03:21.994Z,33.57
2017-08-10T14:05:50.278Z,33.20
2017-08-10T14:08:18.535Z,38.17
2017-08-10T14:10:46.778Z,38.10
2017-08-10T14:13:15.858Z,33.60
2017-08-10T14:15:44.133Z,34.87
2017-08-10T14:18:12.392Z,37.10
2017-08-10T14:20:40.634Z,47.70
2017-08-10T14:23:08.891Z,53.70
2017-08-10T14:25:37.143Z,54.30
2017-08-10T14:28:05.460Z,41.03
2017-08-10T14:30:34.572Z,47.90
2017-08-10T14:33:02.860Z,42.37
2017-08-10T14:35:31.135Z,45.77
2017-08-10T14:37:59.372Z,63.03
2017-08-10T14:40:28.412Z,41.43
2017-08-10T14:42:56.678Z,42.20
2017-08-10T14:45:24.959Z,35.07
2017-08-10T14:47:53.335Z,42.57
2017-08-10T14:50:21.589Z,42.93
2017-08-10T14:52:49.876Z,52.43
2017-08-10T14:55:18.168Z,51.97
2017-08-10T14:57:46.507Z,44.20
2017-08-10T15:00:15.523Z,65.20
2017-08-10T15:02:43.853Z,107.17
2017-08-10T15:05:12.155Z,67.83
2017-08-10T15:07:41.168Z,43.67
2017-08-10T15:10:10.232Z,44.33
2017-08-10T15:12:38.599Z,46.73
2017-08-10T15:15:06.872Z,40.23
2017-08-10T15:17:35.135Z,41.10
2017-08-10T15:20:03.402Z,45.30
2017-08-10T15:22:31.687Z,41.30
2017-08-10T15:25:00.024Z,39.20
2017-08-10T15:27:28.274Z,37.70
2017-08-10T15:29:56.552Z,40.23
2017-08-10T15:32:24.854Z,37.83
2017-08-10T15:34:53.114Z,42.80
2017-08-10T15:37:21.390Z,45.10
2017-08-10T15:39:50.443Z,46.70
2017-08-10T15:42:18.993Z,51.83
2017-08-10T15:44:48.177Z,48.67
2017-08-10T15:47:16.454Z,53.33
2017-08-10T15:49:45.494Z,56.50
2017-08-10T15:52:14.907Z,52.40
2017-08-10T15:54:43.611Z,54.03
2017-08-10T15:57:11.901Z,64.43
2017-08-10T15:59:40.166Z,57.37
2017-08-10T16:02:08.487Z,61.17
2017-08-10T16:04:36.771Z,59.40
2017-08-10T16:07:05.046Z,58.43
2017-08-10T16:09:33.343Z,54.87
2017-08-10T16:12:01.634Z,54.87
2017-08-10T16:14:29.927Z,60.27
2017-08-10T16:16:58.472Z,63.17
2017-08-10T16:19:26.770Z,65.30
2017-08-10T16:21:55.147Z,67.37
2017-08-10T16:24:23.407Z,52.17
2017-08-10T16:26:51.673Z,60.00
2017-08-10T16:29:19.984Z,52.87
2017-08-10T16:31:48.238Z,52.50
2017-08-10T16:34:16.501Z,57.13
2017-08-10T16:36:44.834Z,64.13
2017-08-10T16:39:13.100Z,60.20
2017-08-10T16:41:41.364Z,66.60
2017-08-10T16:44:09.674Z,95.10
2017-08-10T16:46:37.945Z,67.53
2017-08-10T16:49:06.316Z,77.70
2017-08-10T16:51:34.660Z,72.47
2017-08-10T16:54:02.913Z,89.20
2017-08-10T16:56:32.054Z,87.63
2017-08-10T16:59:00.311Z,71.03
2017-08-10T17:01:28.554Z,85.63
2017-08-10T17:03:56.928Z,86.10
2017-08-10T17:06:25.164Z,90.20
2017-08-10T17:08:53.431Z,77.37
2017-08-10T17:11:21.725Z,65.23
2017-08-10T17:13:49.992Z,68.90
2017-08-10T17:16:18.236Z,74.73
2017-08-10T17:18:46.535Z,67.00
2017-08-10T17:21:14.794Z,68.50
2017-08-10T17:23:43.076Z,90.43
2017-08-10T17:26:11.343Z,70.80
2017-08-10T17:28:40.375Z,89.60
2017-08-10T17:31:08.645Z,93.97
2017-08-10T17:33:36.970Z,81.50
2017-08-10T17:36:05.298Z,85.13
2017-08-10T17:38:34.340Z,78.07
2017-08-10T17:41:02.602Z,71.67
2017-08-10T17:43:31.762Z,74.00
2017-08-10T17:46:00.786Z,73.03
2017-08-10T17:48:29.041Z,65.03
2017-08-10T17:50:57.300Z,66.53
2017-08-10T17:53:25.711Z,71.57
2017-08-10T17:55:53.962Z,85.43
2017-08-10T17:58:22.995Z,79.57
2017-08-10T18:00:51.261Z,89.50
2017-08-10T18:03:19.584Z,83.37
2017-08-10T18:05:47.866Z,91.10
2017-08-10T18:08:16.887Z,80.43
2017-08-10T18:10:45.200Z,83.37
2017-08-10T18:13:13.482Z,55.57
2017-08-10T18:15:41.774Z,67.97
2017-08-10T18:18:10.039Z,22.50
2017-08-10T18:20:38.337Z,37.53
2017-08-10T18:23:06.574Z,48.17
2017-08-10T18:25:34.879Z,47.10
2017-08-10T18:28:03.191Z,51.63
2017-08-10T18:30:32.217Z,54.13
2017-08-10T18:33:00.504Z,68.10
2017-08-10T18:35:28.793Z,65.17
2017-08-10T18:37:57.141Z,76.00
2017-08-10T18:40:25.442Z,71.50
2017-08-10T18:42:53.712Z,78.87
2017-08-10T18:45:22.050Z,90.23
2017-08-10T18:47:50.307Z,88.60
2017-08-10T18:50:19.262Z,83.43
2017-08-10T18:52:47.517Z,95.23
2017-08-10T18:55:15.848Z,98.27
2017-08-10T18:57:44.140Z,106.70
2017-08-10T19:00:12.420Z,94.37
2017-08-10T19:02:41.464Z,83.87
2017-08-10T19:05:20.620Z,76.00
2017-08-10T19:07:51.503Z,81.43
2017-08-10T19:10:20.435Z,87.37
2017-08-10T19:12:50.006Z,83.00
2017-08-10T19:15:19.231Z,95.67
2017-08-10T19:17:47.555Z,95.30
2017-08-10T19:20:16.828Z,93.40
2017-08-10T19:22:45.294Z,90.60
2017-08-10T19:25:13.982Z,104.63
2017-08-10T19:27:43.793Z,89.00
2017-08-10T19:30:12.279Z,87.07
2017-08-10T19:32:40.859Z,97.00
2017-08-10T19:35:11.401Z,88.47
2017-08-10T19:37:39.976Z,95.90
2017-08-10T19:40:08.677Z,95.47
2017-08-10T19:42:37.462Z,103.17
2017-08-10T19:45:06.365Z,105.77
2017-08-10T19:47:35.960Z,99.37
2017-08-10T19:50:04.862Z,96.60
2017-08-10T19:52:34.350Z,100.67
2017-08-10T19:55:03.959Z,105.30
2017-08-10T19:57:32.546Z,95.87
2017-08-10T20:00:01.075Z,110.53
2017-08-10T20:02:29.526Z,100.00
2017-08-10T20:04:57.901Z,98.33
2017-08-10T20:07:26.198Z,95.13
2017-08-10T20:09:54.532Z,75.97
2017-08-10T20:12:24.101Z,94.63
2017-08-10T20:14:54.181Z,79.70
2017-08-10T20:17:22.626Z,101.40
2017-08-10T20:19:52.137Z,92.60
2017-08-10T20:22:22.159Z,112.93
2017-08-10T20:24:51.199Z,107.47
2017-08-10T20:27:19.867Z,109.43
2017-08-10T20:29:49.093Z,98.77
2017-08-10T20:32:17.361Z,90.20
2017-08-10T20:34:45.629Z,92.20
2017-08-10T20:37:13.887Z,87.50
2017-08-10T20:39:42.641Z,86.97
2017-08-10T20:42:10.919Z,89.83
2017-08-10T20:44:39.970Z,85.20
2017-08-10T20:47:08.240Z,87.90
2017-08-10T20:49:36.555Z,81.93
2017-08-10T20:52:04.884Z,73.57
2017-08-10T20:54:33.172Z,64.27
2017-08-10T20:57:01.586Z,68.57
2017-08-10T20:59:30.771Z,166.77
2017-08-10T21:01:59.033Z,83.80
2017-08-10T21:04:27.303Z,64.47
2017-08-10T21:06:55.585Z,70.97
2017-08-10T21:09:23.827Z,68.07
2017-08-10T21:11:52.111Z,62.20
2017-08-10T21:14:20.404Z,71.03
2017-08-10T21:16:48.706Z,57.23
2017-08-10T21:19:16.974Z,57.43
2017-08-10T21:21:45.246Z,67.50
2017-08-10T21:24:13.558Z,66.23
2017-08-10T21:26:41.845Z,80.93
2017-08-10T21:29:10.130Z,75.60
2017-08-10T21:31:39.174Z,78.00
2017-08-10T21:34:07.478Z,76.77
2017-08-10T21:36:37.074Z,79.87
2017-08-10T21:39:05.397Z,96.33
2017-08-10T21:41:34.482Z,87.47
2017-08-10T21:44:03.519Z,95.40
2017-08-10T21:46:31.801Z,91.70
2017-08-10T21:49:00.097Z,103.33
2017-08-10T21:51:28.564Z,108.60
2017-08-10T21:53:56.842Z,91.80
2017-08-10T21:56:25.993Z,99.53
2017-08-10T21:58:55.978Z,93.63
2017-08-10T22:01:24.883Z,82.20
2017-08-10T22:03:53.179Z,82.33
2017-08-10T22:06:21.482Z,79.93
2017-08-10T22:08:49.784Z,78.80
2017-08-10T22:11:18.009Z,85.37
2017-08-10T22:13:46.297Z,79.10
2017-08-10T22:16:14.619Z,66.70
2017-08-10T22:18:42.890Z,92.37
2017-08-10T22:21:11.152Z,91.90
2017-08-10T22:23:39.448Z,104.30
2017-08-10T22:26:07.732Z,104.63
2017-08-10T22:28:35.997Z,108.00
2017-08-10T22:31:04.246Z,113.90
2017-08-10T22:33:32.524Z,109.20
2017-08-10T22:36:00.779Z,120.97
2017-08-10T22:38:29.846Z,119.43
2017-08-10T22:40:58.071Z,129.43
2017-08-10T22:43:26.373Z,148.50
2017-08-10T22:45:54.590Z,146.57
2017-08-10T22:48:22.837Z,134.57
2017-08-10T22:50:51.142Z,142.50
2017-08-10T22:53:19.427Z,144.10
2017-08-10T22:55:48.482Z,128.13
2017-08-10T22:58:16.721Z,126.20
2017-08-10T23:00:45.039Z,128.20
2017-08-10T23:03:13.345Z,125.77
2017-08-10T23:05:41.623Z,130.43
2017-08-10T23:08:09.898Z,146.13
2017-08-10T23:10:38.158Z,124.40
2017-08-10T23:13:06.449Z,118.20
2017-08-10T23:15:34.702Z,122.93
2017-08-10T23:18:03.522Z,135.07
2017-08-10T23:20:31.822Z,139.03
2017-08-10T23:23:00.072Z,126.10
2017-08-10T23:25:29.126Z,123.07
2017-08-10T23:27:57.388Z,115.50
2017-08-10T23:30:26.398Z,117.43
2017-08-10T23:32:54.645Z,108.10
2017-08-10T23:35:23.672Z,118.13
2017-08-10T23:37:51.957Z,92.87
2017-08-10T23:40:20.667Z,92.30
2017-08-10T23:42:48.937Z,84.97
2017-08-10T23:45:17.217Z,109.00
2017-08-10T23:47:45.582Z,109.07
2017-08-10T23:50:13.827Z,110.30
2017-08-10T23:52:42.137Z,107.73
2017-08-10T23:55:10.420Z,113.63
2017-08-10T23:57:38.726Z,116.67
